sensor_id;sensor_type;location;lat;lon;timestamp;temperature;humidity
51175;DHT22;37240;50.104;20.010;2023-12-22T00:01:38;9.50;99.00
51175;DHT22;37240;50.104;20.010;2023-12-22T00:06:40;9.50;99.30
51175;DHT22;37240;50.104;20.010;2023-12-22T00:11:40;9.40;99.30
51175;DHT22;37240;50.104;20.010;2023-12-22T00:16:41;9.40;98.80
51175;DHT22;37240;50.104;20.010;2023-12-22T00:21:41;9.30;98.60
51175;DHT22;37240;50.104;20.010;2023-12-22T00:26:42;9.40;98.00
51175;DHT22;37240;50.104;20.010;2023-12-22T00:31:42;9.30;97.40
51175;DHT22;37240;50.104;20.010;2023-12-22T00:36:43;9.20;96.80
51175;DHT22;37240;50.104;20.010;2023-12-22T00:41:44;9.20;96.90
51175;DHT22;37240;50.104;20.010;2023-12-22T00:46:44;9.20;96.70
51175;DHT22;37240;50.104;20.010;2023-12-22T00:51:45;9.10;96.40
51175;DHT22;37240;50.104;20.010;2023-12-22T00:56:45;9.10;96.60
51175;DHT22;37240;50.104;20.010;2023-12-22T01:01:46;9.00;96.00
51175;DHT22;37240;50.104;20.010;2023-12-22T01:06:46;9.00;96.00
51175;DHT22;37240;50.104;20.010;2023-12-22T01:11:47;8.80;96.20
51175;DHT22;37240;50.104;20.010;2023-12-22T01:16:47;8.80;96.50
51175;DHT22;37240;50.104;20.010;2023-12-22T01:21:48;8.80;96.20
51175;DHT22;37240;50.104;20.010;2023-12-22T01:26:48;8.70;96.30
51175;DHT22;37240;50.104;20.010;2023-12-22T01:31:49;8.70;96.40
51175;DHT22;37240;50.104;20.010;2023-12-22T01:36:49;8.60;96.80
51175;DHT22;37240;50.104;20.010;2023-12-22T01:41:50;8.50;97.00
51175;DHT22;37240;50.104;20.010;2023-12-22T01:46:51;8.50;96.90
51175;DHT22;37240;50.104;20.010;2023-12-22T01:51:52;8.50;96.50
51175;DHT22;37240;50.104;20.010;2023-12-22T01:56:54;8.30;96.70
51175;DHT22;37240;50.104;20.010;2023-12-22T02:01:55;8.40;96.90
51175;DHT22;37240;50.104;20.010;2023-12-22T02:06:57;8.40;95.90
51175;DHT22;37240;50.104;20.010;2023-12-22T02:11:58;8.30;95.60
51175;DHT22;37240;50.104;20.010;2023-12-22T02:17:14;8.30;95.50
51175;DHT22;37240;50.104;20.010;2023-12-22T02:22:15;8.40;95.70
51175;DHT22;37240;50.104;20.010;2023-12-22T02:27:28;8.40;95.30
51175;DHT22;37240;50.104;20.010;2023-12-22T02:32:38;8.40;95.40
51175;DHT22;37240;50.104;20.010;2023-12-22T02:37:40;8.40;95.40
51175;DHT22;37240;50.104;20.010;2023-12-22T02:42:41;8.40;95.20
51175;DHT22;37240;50.104;20.010;2023-12-22T02:47:43;8.40;95.20
51175;DHT22;37240;50.104;20.010;2023-12-22T02:52:44;8.30;95.00
51175;DHT22;37240;50.104;20.010;2023-12-22T02:57:44;8.20;94.60
51175;DHT22;37240;50.104;20.010;2023-12-22T03:02:45;8.20;94.50
51175;DHT22;37240;50.104;20.010;2023-12-22T03:07:45;8.20;94.40
51175;DHT22;37240;50.104;20.010;2023-12-22T03:12:46;8.20;94.30
51175;DHT22;37240;50.104;20.010;2023-12-22T03:17:46;8.10;94.40
51175;DHT22;37240;50.104;20.010;2023-12-22T03:22:47;8.20;94.20
51175;DHT22;37240;50.104;20.010;2023-12-22T03:27:47;8.00;93.60
51175;DHT22;37240;50.104;20.010;2023-12-22T03:32:48;8.00;93.50
51175;DHT22;37240;50.104;20.010;2023-12-22T03:37:48;7.90;93.40
51175;DHT22;37240;50.104;20.010;2023-12-22T03:42:49;8.00;93.10
51175;DHT22;37240;50.104;20.010;2023-12-22T03:47:49;7.90;92.50
51175;DHT22;37240;50.104;20.010;2023-12-22T03:52:50;7.90;92.40
51175;DHT22;37240;50.104;20.010;2023-12-22T03:57:50;7.90;92.00
51175;DHT22;37240;50.104;20.010;2023-12-22T04:02:51;7.90;91.10
51175;DHT22;37240;50.104;20.010;2023-12-22T04:07:51;7.90;91.30
51175;DHT22;37240;50.104;20.010;2023-12-22T04:12:52;7.80;91.70
51175;DHT22;37240;50.104;20.010;2023-12-22T04:17:52;7.80;91.40
51175;DHT22;37240;50.104;20.010;2023-12-22T04:22:53;7.70;89.60
51175;DHT22;37240;50.104;20.010;2023-12-22T04:27:53;7.70;87.10
51175;DHT22;37240;50.104;20.010;2023-12-22T04:32:54;7.70;85.10
51175;DHT22;37240;50.104;20.010;2023-12-22T04:37:54;7.50;85.70
51175;DHT22;37240;50.104;20.010;2023-12-22T04:42:55;7.70;86.50
51175;DHT22;37240;50.104;20.010;2023-12-22T04:47:55;7.70;87.80
51175;DHT22;37240;50.104;20.010;2023-12-22T04:52:56;7.80;87.90
51175;DHT22;37240;50.104;20.010;2023-12-22T04:57:56;7.90;88.00
51175;DHT22;37240;50.104;20.010;2023-12-22T05:02:57;7.90;88.50
51175;DHT22;37240;50.104;20.010;2023-12-22T05:07:57;7.80;90.00
51175;DHT22;37240;50.104;20.010;2023-12-22T05:12:58;7.90;90.80
51175;DHT22;37240;50.104;20.010;2023-12-22T05:17:58;7.90;91.40
51175;DHT22;37240;50.104;20.010;2023-12-22T05:22:59;8.00;92.10
51175;DHT22;37240;50.104;20.010;2023-12-22T05:27:59;7.80;94.30
51175;DHT22;37240;50.104;20.010;2023-12-22T05:33:00;7.50;95.90
51175;DHT22;37240;50.104;20.010;2023-12-22T05:38:01;7.10;96.70
51175;DHT22;37240;50.104;20.010;2023-12-22T05:43:01;6.80;97.20
51175;DHT22;37240;50.104;20.010;2023-12-22T05:48:02;6.70;97.90
51175;DHT22;37240;50.104;20.010;2023-12-22T05:53:03;6.50;98.20
51175;DHT22;37240;50.104;20.010;2023-12-22T05:58:03;6.30;98.60
51175;DHT22;37240;50.104;20.010;2023-12-22T06:03:04;6.30;98.80
51175;DHT22;37240;50.104;20.010;2023-12-22T06:08:04;6.20;98.90
51175;DHT22;37240;50.104;20.010;2023-12-22T06:13:05;6.20;98.30
51175;DHT22;37240;50.104;20.010;2023-12-22T06:18:06;6.20;97.80
51175;DHT22;37240;50.104;20.010;2023-12-22T06:23:06;6.20;97.60
51175;DHT22;37240;50.104;20.010;2023-12-22T06:28:07;6.10;97.20
51175;DHT22;37240;50.104;20.010;2023-12-22T06:33:07;6.10;96.90
51175;DHT22;37240;50.104;20.010;2023-12-22T06:38:08;6.20;96.80
51175;DHT22;37240;50.104;20.010;2023-12-22T06:43:08;6.30;96.30
51175;DHT22;37240;50.104;20.010;2023-12-22T06:48:09;6.40;95.90
51175;DHT22;37240;50.104;20.010;2023-12-22T06:53:09;6.50;96.00
51175;DHT22;37240;50.104;20.010;2023-12-22T06:58:10;6.60;96.90
51175;DHT22;37240;50.104;20.010;2023-12-22T07:03:10;6.60;96.10
51175;DHT22;37240;50.104;20.010;2023-12-22T07:08:11;6.60;95.50
51175;DHT22;37240;50.104;20.010;2023-12-22T07:13:11;6.60;95.60
51175;DHT22;37240;50.104;20.010;2023-12-22T07:18:12;6.60;95.50
51175;DHT22;37240;50.104;20.010;2023-12-22T07:23:12;6.60;95.00
51175;DHT22;37240;50.104;20.010;2023-12-22T07:28:13;6.70;94.40
51175;DHT22;37240;50.104;20.010;2023-12-22T07:33:13;6.80;94.30
51175;DHT22;37240;50.104;20.010;2023-12-22T07:38:14;6.90;94.00
51175;DHT22;37240;50.104;20.010;2023-12-22T07:43:15;6.90;94.10
51175;DHT22;37240;50.104;20.010;2023-12-22T07:48:15;7.10;94.00
51175;DHT22;37240;50.104;20.010;2023-12-22T07:53:16;7.00;93.50
51175;DHT22;37240;50.104;20.010;2023-12-22T07:58:16;7.10;93.70
51175;DHT22;37240;50.104;20.010;2023-12-22T08:03:17;7.30;93.80
51175;DHT22;37240;50.104;20.010;2023-12-22T08:08:17;7.40;93.90
51175;DHT22;37240;50.104;20.010;2023-12-22T08:13:18;7.40;93.60
51175;DHT22;37240;50.104;20.010;2023-12-22T08:18:18;7.40;93.60
51175;DHT22;37240;50.104;20.010;2023-12-22T08:23:19;7.50;93.70
51175;DHT22;37240;50.104;20.010;2023-12-22T08:28:19;7.60;94.70
51175;DHT22;37240;50.104;20.010;2023-12-22T08:33:20;7.80;94.20
51175;DHT22;37240;50.104;20.010;2023-12-22T08:38:20;8.00;94.10
51175;DHT22;37240;50.104;20.010;2023-12-22T08:43:21;8.10;94.00
51175;DHT22;37240;50.104;20.010;2023-12-22T08:48:22;8.10;93.80
51175;DHT22;37240;50.104;20.010;2023-12-22T08:53:22;8.20;93.90
51175;DHT22;37240;50.104;20.010;2023-12-22T08:58:23;8.40;93.50
51175;DHT22;37240;50.104;20.010;2023-12-22T09:03:23;8.50;93.00
51175;DHT22;37240;50.104;20.010;2023-12-22T09:08:24;8.40;92.90
51175;DHT22;37240;50.104;20.010;2023-12-22T09:13:24;8.40;93.10
51175;DHT22;37240;50.104;20.010;2023-12-22T09:18:25;8.30;93.20
51175;DHT22;37240;50.104;20.010;2023-12-22T09:23:25;8.30;93.50
51175;DHT22;37240;50.104;20.010;2023-12-22T09:28:26;8.30;93.50
51175;DHT22;37240;50.104;20.010;2023-12-22T09:33:26;8.10;94.30
51175;DHT22;37240;50.104;20.010;2023-12-22T09:38:27;7.70;96.50
51175;DHT22;37240;50.104;20.010;2023-12-22T09:43:28;7.60;96.10
51175;DHT22;37240;50.104;20.010;2023-12-22T09:48:29;7.40;96.70
51175;DHT22;37240;50.104;20.010;2023-12-22T09:53:31;7.40;96.80
51175;DHT22;37240;50.104;20.010;2023-12-22T09:58:33;7.40;97.20
51175;DHT22;37240;50.104;20.010;2023-12-22T10:03:34;7.40;97.20
51175;DHT22;37240;50.104;20.010;2023-12-22T10:08:35;7.40;97.50
51175;DHT22;37240;50.104;20.010;2023-12-22T10:13:36;7.60;97.30
51175;DHT22;37240;50.104;20.010;2023-12-22T10:18:38;7.70;96.70
51175;DHT22;37240;50.104;20.010;2023-12-22T10:23:39;7.60;96.80
51175;DHT22;37240;50.104;20.010;2023-12-22T10:28:41;7.60;96.80
51175;DHT22;37240;50.104;20.010;2023-12-22T10:33:43;7.70;96.80
51175;DHT22;37240;50.104;20.010;2023-12-22T10:38:44;7.60;96.70
51175;DHT22;37240;50.104;20.010;2023-12-22T10:43:45;7.50;96.70
51175;DHT22;37240;50.104;20.010;2023-12-22T10:48:45;7.50;96.80
51175;DHT22;37240;50.104;20.010;2023-12-22T10:53:46;7.60;96.60
51175;DHT22;37240;50.104;20.010;2023-12-22T10:58:47;7.70;96.40
51175;DHT22;37240;50.104;20.010;2023-12-22T11:03:51;7.70;96.70
51175;DHT22;37240;50.104;20.010;2023-12-22T11:08:52;7.80;97.50
51175;DHT22;37240;50.104;20.010;2023-12-22T11:13:53;7.80;95.90
51175;DHT22;37240;50.104;20.010;2023-12-22T11:18:55;7.80;95.90
51175;DHT22;37240;50.104;20.010;2023-12-22T11:23:57;7.60;95.40
51175;DHT22;37240;50.104;20.010;2023-12-22T11:28:58;7.70;94.90
51175;DHT22;37240;50.104;20.010;2023-12-22T11:34:00;7.60;94.90
51175;DHT22;37240;50.104;20.010;2023-12-22T11:39:01;7.30;96.00
51175;DHT22;37240;50.104;20.010;2023-12-22T11:44:04;7.30;96.60
51175;DHT22;37240;50.104;20.010;2023-12-22T11:49:06;7.20;97.30
51175;DHT22;37240;50.104;20.010;2023-12-22T11:59:45;7.10;98.20
51175;DHT22;37240;50.104;20.010;2023-12-22T12:04:47;7.20;98.40
51175;DHT22;37240;50.104;20.010;2023-12-22T12:09:48;7.10;98.40
51175;DHT22;37240;50.104;20.010;2023-12-22T12:14:51;7.20;98.40
51175;DHT22;37240;50.104;20.010;2023-12-22T12:19:54;7.10;98.50
51175;DHT22;37240;50.104;20.010;2023-12-22T12:24:55;7.20;98.80
51175;DHT22;37240;50.104;20.010;2023-12-22T12:29:56;7.30;98.60
51175;DHT22;37240;50.104;20.010;2023-12-22T12:34:57;7.30;98.10
51175;DHT22;37240;50.104;20.010;2023-12-22T12:39:59;7.10;97.80
51175;DHT22;37240;50.104;20.010;2023-12-22T12:45:03;7.20;97.20
51175;DHT22;37240;50.104;20.010;2023-12-22T12:50:04;7.00;97.00
51175;DHT22;37240;50.104;20.010;2023-12-22T12:55:05;7.10;96.90
51175;DHT22;37240;50.104;20.010;2023-12-22T13:00:06;7.10;97.00
51175;DHT22;37240;50.104;20.010;2023-12-22T13:05:07;7.10;97.20
51175;DHT22;37240;50.104;20.010;2023-12-22T13:10:22;7.10;97.00
51175;DHT22;37240;50.104;20.010;2023-12-22T13:15:23;7.10;97.10
51175;DHT22;37240;50.104;20.010;2023-12-22T13:20:24;7.10;96.60
51175;DHT22;37240;50.104;20.010;2023-12-22T13:25:24;7.00;96.20
51175;DHT22;37240;50.104;20.010;2023-12-22T13:30:38;6.90;95.80
51175;DHT22;37240;50.104;20.010;2023-12-22T13:35:39;6.90;95.60
51175;DHT22;37240;50.104;20.010;2023-12-22T13:40:45;6.90;95.00
51175;DHT22;37240;50.104;20.010;2023-12-22T13:45:49;6.90;94.60
51175;DHT22;37240;50.104;20.010;2023-12-22T13:50:57;6.80;95.20
51175;DHT22;37240;50.104;20.010;2023-12-22T13:56:01;6.80;95.90
51175;DHT22;37240;50.104;20.010;2023-12-22T14:01:15;6.80;96.30
51175;DHT22;37240;50.104;20.010;2023-12-22T14:06:16;6.90;96.30
51175;DHT22;37240;50.104;20.010;2023-12-22T14:11:17;6.80;95.40
51175;DHT22;37240;50.104;20.010;2023-12-22T14:16:17;6.80;94.40
51175;DHT22;37240;50.104;20.010;2023-12-22T14:21:18;6.70;94.30
51175;DHT22;37240;50.104;20.010;2023-12-22T14:26:18;6.70;93.10
51175;DHT22;37240;50.104;20.010;2023-12-22T14:31:19;6.70;91.60
51175;DHT22;37240;50.104;20.010;2023-12-22T14:36:19;6.60;91.30
51175;DHT22;37240;50.104;20.010;2023-12-22T14:41:20;6.70;91.90
51175;DHT22;37240;50.104;20.010;2023-12-22T14:46:20;6.70;90.80
51175;DHT22;37240;50.104;20.010;2023-12-22T14:51:21;6.80;90.20
51175;DHT22;37240;50.104;20.010;2023-12-22T14:56:22;6.90;90.10
51175;DHT22;37240;50.104;20.010;2023-12-22T15:01:22;6.70;88.20
51175;DHT22;37240;50.104;20.010;2023-12-22T15:06:23;6.70;86.00
51175;DHT22;37240;50.104;20.010;2023-12-22T15:11:23;6.70;84.70
51175;DHT22;37240;50.104;20.010;2023-12-22T15:16:24;6.70;83.20
51175;DHT22;37240;50.104;20.010;2023-12-22T15:21:24;6.60;81.90
51175;DHT22;37240;50.104;20.010;2023-12-22T15:26:25;6.70;81.00
51175;DHT22;37240;50.104;20.010;2023-12-22T15:31:25;6.70;80.10
51175;DHT22;37240;50.104;20.010;2023-12-22T15:36:26;6.60;79.90
51175;DHT22;37240;50.104;20.010;2023-12-22T15:41:30;6.60;80.70
51175;DHT22;37240;50.104;20.010;2023-12-22T15:46:30;6.70;79.40
51175;DHT22;37240;50.104;20.010;2023-12-22T15:51:31;6.70;79.90
51175;DHT22;37240;50.104;20.010;2023-12-22T15:56:31;6.70;77.40
51175;DHT22;37240;50.104;20.010;2023-12-22T16:01:32;6.70;77.30
51175;DHT22;37240;50.104;20.010;2023-12-22T16:06:32;6.80;77.80
51175;DHT22;37240;50.104;20.010;2023-12-22T16:11:33;6.80;76.60
51175;DHT22;37240;50.104;20.010;2023-12-22T16:16:33;6.80;78.00
51175;DHT22;37240;50.104;20.010;2023-12-22T16:21:40;6.80;78.00
51175;DHT22;37240;50.104;20.010;2023-12-22T16:26:40;6.90;78.50
51175;DHT22;37240;50.104;20.010;2023-12-22T16:31:41;7.00;80.10
51175;DHT22;37240;50.104;20.010;2023-12-22T16:36:44;7.10;77.80
51175;DHT22;37240;50.104;20.010;2023-12-22T16:41:45;7.10;77.70
51175;DHT22;37240;50.104;20.010;2023-12-22T16:46:45;6.90;75.90
51175;DHT22;37240;50.104;20.010;2023-12-22T16:51:46;6.80;75.80
51175;DHT22;37240;50.104;20.010;2023-12-22T16:56:46;6.80;75.70
51175;DHT22;37240;50.104;20.010;2023-12-22T17:01:47;6.80;75.90
51175;DHT22;37240;50.104;20.010;2023-12-22T17:06:52;6.80;75.10
51175;DHT22;37240;50.104;20.010;2023-12-22T17:11:52;6.70;74.70
51175;DHT22;37240;50.104;20.010;2023-12-22T17:16:53;6.60;74.50
51175;DHT22;37240;50.104;20.010;2023-12-22T17:21:53;6.60;73.50
51175;DHT22;37240;50.104;20.010;2023-12-22T17:26:54;6.50;74.60
51175;DHT22;37240;50.104;20.010;2023-12-22T17:31:54;6.50;74.70
51175;DHT22;37240;50.104;20.010;2023-12-22T17:36:55;6.50;75.20
51175;DHT22;37240;50.104;20.010;2023-12-22T17:41:56;6.60;75.50
51175;DHT22;37240;50.104;20.010;2023-12-22T17:46:56;6.50;75.40
51175;DHT22;37240;50.104;20.010;2023-12-22T17:51:57;6.50;75.50
51175;DHT22;37240;50.104;20.010;2023-12-22T17:56:57;6.70;78.70
51175;DHT22;37240;50.104;20.010;2023-12-22T18:01:58;6.80;76.80
51175;DHT22;37240;50.104;20.010;2023-12-22T18:06:59;6.80;76.60
51175;DHT22;37240;50.104;20.010;2023-12-22T18:11:59;6.70;78.10
51175;DHT22;37240;50.104;20.010;2023-12-22T18:17:00;6.60;77.40
51175;DHT22;37240;50.104;20.010;2023-12-22T18:22:00;6.60;77.60
51175;DHT22;37240;50.104;20.010;2023-12-22T18:27:01;6.50;78.10
51175;DHT22;37240;50.104;20.010;2023-12-22T18:32:01;6.40;80.70
51175;DHT22;37240;50.104;20.010;2023-12-22T18:37:02;6.40;87.60
51175;DHT22;37240;50.104;20.010;2023-12-22T18:42:03;6.50;89.30
51175;DHT22;37240;50.104;20.010;2023-12-22T18:47:03;6.50;82.00
51175;DHT22;37240;50.104;20.010;2023-12-22T18:52:04;6.50;82.30
51175;DHT22;37240;50.104;20.010;2023-12-22T18:57:04;6.50;82.60
51175;DHT22;37240;50.104;20.010;2023-12-22T19:02:05;6.60;81.80
51175;DHT22;37240;50.104;20.010;2023-12-22T19:07:06;6.60;85.40
51175;DHT22;37240;50.104;20.010;2023-12-22T19:12:06;6.60;82.20
51175;DHT22;37240;50.104;20.010;2023-12-22T19:17:07;6.60;80.90
51175;DHT22;37240;50.104;20.010;2023-12-22T19:22:07;6.50;79.20
51175;DHT22;37240;50.104;20.010;2023-12-22T19:27:08;6.50;79.50
51175;DHT22;37240;50.104;20.010;2023-12-22T19:32:09;6.40;79.70
51175;DHT22;37240;50.104;20.010;2023-12-22T19:37:09;6.40;80.80
51175;DHT22;37240;50.104;20.010;2023-12-22T19:42:10;6.50;81.60
51175;DHT22;37240;50.104;20.010;2023-12-22T19:47:10;6.50;80.70
51175;DHT22;37240;50.104;20.010;2023-12-22T19:52:11;6.50;79.90
51175;DHT22;37240;50.104;20.010;2023-12-22T19:57:11;6.40;80.50
51175;DHT22;37240;50.104;20.010;2023-12-22T20:02:12;6.30;78.40
51175;DHT22;37240;50.104;20.010;2023-12-22T20:07:12;6.40;78.80
51175;DHT22;37240;50.104;20.010;2023-12-22T20:12:13;6.30;79.10
51175;DHT22;37240;50.104;20.010;2023-12-22T20:17:13;6.20;78.00
51175;DHT22;37240;50.104;20.010;2023-12-22T20:22:14;6.10;78.70
51175;DHT22;37240;50.104;20.010;2023-12-22T20:27:14;6.10;79.50
51175;DHT22;37240;50.104;20.010;2023-12-22T20:32:15;6.20;82.60
51175;DHT22;37240;50.104;20.010;2023-12-22T20:37:15;6.10;84.30
51175;DHT22;37240;50.104;20.010;2023-12-22T20:42:16;6.00;84.60
51175;DHT22;37240;50.104;20.010;2023-12-22T20:47:17;6.00;85.80
51175;DHT22;37240;50.104;20.010;2023-12-22T20:52:17;6.00;88.20
51175;DHT22;37240;50.104;20.010;2023-12-22T20:57:18;6.00;90.20
51175;DHT22;37240;50.104;20.010;2023-12-22T21:02:19;6.10;90.60
51175;DHT22;37240;50.104;20.010;2023-12-22T21:07:20;6.20;90.30
51175;DHT22;37240;50.104;20.010;2023-12-22T21:12:20;6.20;88.00
51175;DHT22;37240;50.104;20.010;2023-12-22T21:17:21;6.00;86.90
51175;DHT22;37240;50.104;20.010;2023-12-22T21:22:21;6.00;86.00
51175;DHT22;37240;50.104;20.010;2023-12-22T21:27:22;6.00;85.20
51175;DHT22;37240;50.104;20.010;2023-12-22T21:32:22;6.00;84.90
51175;DHT22;37240;50.104;20.010;2023-12-22T21:37:23;5.90;83.60
51175;DHT22;37240;50.104;20.010;2023-12-22T21:42:27;5.80;83.50
51175;DHT22;37240;50.104;20.010;2023-12-22T21:47:28;5.80;83.50
51175;DHT22;37240;50.104;20.010;2023-12-22T21:52:28;5.90;83.00
51175;DHT22;37240;50.104;20.010;2023-12-22T21:57:29;5.80;82.50
51175;DHT22;37240;50.104;20.010;2023-12-22T22:02:30;5.80;83.00
51175;DHT22;37240;50.104;20.010;2023-12-22T22:07:30;5.90;83.60
51175;DHT22;37240;50.104;20.010;2023-12-22T22:12:31;6.00;82.70
51175;DHT22;37240;50.104;20.010;2023-12-22T22:17:31;5.80;82.10
51175;DHT22;37240;50.104;20.010;2023-12-22T22:22:32;5.80;81.90
51175;DHT22;37240;50.104;20.010;2023-12-22T22:27:32;5.90;81.90
51175;DHT22;37240;50.104;20.010;2023-12-22T22:32:33;5.80;82.20
51175;DHT22;37240;50.104;20.010;2023-12-22T22:37:34;5.80;82.00
51175;DHT22;37240;50.104;20.010;2023-12-22T22:42:34;5.80;80.40
51175;DHT22;37240;50.104;20.010;2023-12-22T22:47:35;5.90;80.50
51175;DHT22;37240;50.104;20.010;2023-12-22T22:52:35;5.90;80.60
51175;DHT22;37240;50.104;20.010;2023-12-22T22:57:36;5.90;80.30
51175;DHT22;37240;50.104;20.010;2023-12-22T23:02:37;6.00;80.60
51175;DHT22;37240;50.104;20.010;2023-12-22T23:07:37;5.90;80.00
51175;DHT22;37240;50.104;20.010;2023-12-22T23:12:38;5.90;80.70
51175;DHT22;37240;50.104;20.010;2023-12-22T23:17:39;6.00;80.70
51175;DHT22;37240;50.104;20.010;2023-12-22T23:22:39;6.10;80.80
51175;DHT22;37240;50.104;20.010;2023-12-22T23:27:40;6.10;80.10
51175;DHT22;37240;50.104;20.010;2023-12-22T23:32:40;6.10;80.00
51175;DHT22;37240;50.104;20.010;2023-12-22T23:37:41;6.10;80.00
51175;DHT22;37240;50.104;20.010;2023-12-22T23:42:41;6.10;79.80
51175;DHT22;37240;50.104;20.010;2023-12-22T23:47:42;6.10;79.60
51175;DHT22;37240;50.104;20.010;2023-12-22T23:52:42;6.00;79.40
51175;DHT22;37240;50.104;20.010;2023-12-22T23:57:43;6.00;79.30
